sensor_id;sensor_type;location;lat;lon;timestamp;P1;durP1;ratioP1;P2;durP2;ratioP2
50231;SDS011;36118;56.468;84.952;2023-07-31T00:04:19;57.63;;;28.10;;
50231;SDS011;36118;56.468;84.952;2023-07-31T00:09:22;86.55;;;27.30;;
50231;SDS011;36118;56.468;84.952;2023-07-31T00:14:25;63.20;;;27.42;;
50231;SDS011;36118;56.468;84.952;2023-07-31T00:19:28;79.10;;;26.77;;
50231;SDS011;36118;56.468;84.952;2023-07-31T00:24:31;167.13;;;25.77;;
50231;SDS011;36118;56.468;84.952;2023-07-31T00:29:34;169.52;;;25.48;;
50231;SDS011;36118;56.468;84.952;2023-07-31T00:34:39;42.95;;;21.83;;
50231;SDS011;36118;56.468;84.952;2023-07-31T00:39:42;32.03;;;21.23;;
50231;SDS011;36118;56.468;84.952;2023-07-31T00:44:45;49.92;;;21.38;;
50231;SDS011;36118;56.468;84.952;2023-07-31T00:49:50;32.17;;;20.05;;
50231;SDS011;36118;56.468;84.952;2023-07-31T00:54:53;41.40;;;20.38;;
50231;SDS011;36118;56.468;84.952;2023-07-31T00:59:56;33.83;;;21.15;;
50231;SDS011;36118;56.468;84.952;2023-07-31T01:05:00;39.17;;;22.40;;
50231;SDS011;36118;56.468;84.952;2023-07-31T01:10:16;26.40;;;21.25;;
50231;SDS011;36118;56.468;84.952;2023-07-31T01:15:22;41.00;;;21.55;;
50231;SDS011;36118;56.468;84.952;2023-07-31T01:20:25;26.60;;;20.77;;
50231;SDS011;36118;56.468;84.952;2023-07-31T01:25:43;24.93;;;19.90;;
50231;SDS011;36118;56.468;84.952;2023-07-31T01:31:03;22.25;;;18.25;;
50231;SDS011;36118;56.468;84.952;2023-07-31T01:36:08;19.35;;;17.35;;
50231;SDS011;36118;56.468;84.952;2023-07-31T01:41:11;17.10;;;15.30;;
50231;SDS011;36118;56.468;84.952;2023-07-31T01:46:14;17.55;;;15.73;;
50231;SDS011;36118;56.468;84.952;2023-07-31T01:51:17;17.67;;;15.88;;
50231;SDS011;36118;56.468;84.952;2023-07-31T01:56:20;16.55;;;14.82;;
50231;SDS011;36118;56.468;84.952;2023-07-31T02:01:23;19.58;;;14.25;;
50231;SDS011;36118;56.468;84.952;2023-07-31T02:06:26;18.20;;;14.65;;
50231;SDS011;36118;56.468;84.952;2023-07-31T02:11:29;19.52;;;13.48;;
50231;SDS011;36118;56.468;84.952;2023-07-31T02:16:32;13.98;;;12.15;;
50231;SDS011;36118;56.468;84.952;2023-07-31T02:21:35;15.88;;;11.88;;
50231;SDS011;36118;56.468;84.952;2023-07-31T02:26:39;14.73;;;11.32;;
50231;SDS011;36118;56.468;84.952;2023-07-31T02:31:43;12.20;;;11.00;;
50231;SDS011;36118;56.468;84.952;2023-07-31T02:36:46;13.93;;;12.50;;
50231;SDS011;36118;56.468;84.952;2023-07-31T02:41:49;14.35;;;12.95;;
50231;SDS011;36118;56.468;84.952;2023-07-31T02:46:52;14.30;;;11.90;;
50231;SDS011;36118;56.468;84.952;2023-07-31T02:51:54;19.38;;;12.93;;
50231;SDS011;36118;56.468;84.952;2023-07-31T02:56:57;20.73;;;13.05;;
50231;SDS011;36118;56.468;84.952;2023-07-31T03:02:02;15.23;;;11.85;;
50231;SDS011;36118;56.468;84.952;2023-07-31T03:07:05;21.65;;;12.45;;
50231;SDS011;36118;56.468;84.952;2023-07-31T03:12:09;17.42;;;11.32;;
50231;SDS011;36118;56.468;84.952;2023-07-31T03:17:11;16.80;;;11.23;;
50231;SDS011;36118;56.468;84.952;2023-07-31T03:22:16;15.67;;;11.47;;
50231;SDS011;36118;56.468;84.952;2023-07-31T03:27:19;13.93;;;11.15;;
50231;SDS011;36118;56.468;84.952;2023-07-31T03:32:21;12.40;;;10.07;;
50231;SDS011;36118;56.468;84.952;2023-07-31T03:37:24;11.88;;;9.98;;
50231;SDS011;36118;56.468;84.952;2023-07-31T03:42:28;12.60;;;9.80;;
50231;SDS011;36118;56.468;84.952;2023-07-31T03:47:31;13.38;;;9.43;;
50231;SDS011;36118;56.468;84.952;2023-07-31T03:52:34;12.85;;;8.80;;
50231;SDS011;36118;56.468;84.952;2023-07-31T03:57:37;10.77;;;8.73;;
50231;SDS011;36118;56.468;84.952;2023-07-31T04:02:40;10.27;;;9.23;;
50231;SDS011;36118;56.468;84.952;2023-07-31T04:07:44;12.75;;;9.38;;
50231;SDS011;36118;56.468;84.952;2023-07-31T04:12:47;11.13;;;9.40;;
50231;SDS011;36118;56.468;84.952;2023-07-31T04:17:50;10.70;;;9.50;;
50231;SDS011;36118;56.468;84.952;2023-07-31T04:22:53;11.75;;;9.93;;
50231;SDS011;36118;56.468;84.952;2023-07-31T04:27:56;12.02;;;10.30;;
50231;SDS011;36118;56.468;84.952;2023-07-31T04:32:59;12.63;;;10.30;;
50231;SDS011;36118;56.468;84.952;2023-07-31T04:38:02;10.70;;;9.55;;
50231;SDS011;36118;56.468;84.952;2023-07-31T04:43:05;11.05;;;9.52;;
50231;SDS011;36118;56.468;84.952;2023-07-31T04:48:08;11.68;;;10.48;;
50231;SDS011;36118;56.468;84.952;2023-07-31T04:53:11;12.02;;;9.52;;
50231;SDS011;36118;56.468;84.952;2023-07-31T04:58:15;13.25;;;10.82;;
50231;SDS011;36118;56.468;84.952;2023-07-31T05:03:17;12.48;;;10.35;;
50231;SDS011;36118;56.468;84.952;2023-07-31T05:08:20;12.07;;;10.40;;
50231;SDS011;36118;56.468;84.952;2023-07-31T05:13:23;11.32;;;10.20;;
50231;SDS011;36118;56.468;84.952;2023-07-31T05:18:26;11.77;;;10.10;;
50231;SDS011;36118;56.468;84.952;2023-07-31T05:23:29;12.05;;;10.48;;
50231;SDS011;36118;56.468;84.952;2023-07-31T05:28:35;11.52;;;10.43;;
50231;SDS011;36118;56.468;84.952;2023-07-31T05:33:39;11.98;;;10.07;;
50231;SDS011;36118;56.468;84.952;2023-07-31T05:38:42;14.38;;;10.13;;
50231;SDS011;36118;56.468;84.952;2023-07-31T05:43:48;17.88;;;9.80;;
50231;SDS011;36118;56.468;84.952;2023-07-31T05:48:51;12.02;;;9.93;;
50231;SDS011;36118;56.468;84.952;2023-07-31T05:53:55;11.90;;;10.70;;
50231;SDS011;36118;56.468;84.952;2023-07-31T05:58:58;10.80;;;9.70;;
50231;SDS011;36118;56.468;84.952;2023-07-31T06:04:01;10.07;;;9.02;;
50231;SDS011;36118;56.468;84.952;2023-07-31T06:09:06;15.38;;;9.23;;
50231;SDS011;36118;56.468;84.952;2023-07-31T06:14:09;13.75;;;9.00;;
50231;SDS011;36118;56.468;84.952;2023-07-31T06:19:12;10.68;;;8.10;;
50231;SDS011;36118;56.468;84.952;2023-07-31T06:24:15;9.27;;;8.13;;
50231;SDS011;36118;56.468;84.952;2023-07-31T06:29:21;10.70;;;7.85;;
50231;SDS011;36118;56.468;84.952;2023-07-31T06:34:24;10.60;;;8.23;;
50231;SDS011;36118;56.468;84.952;2023-07-31T06:39:27;9.63;;;8.63;;
50231;SDS011;36118;56.468;84.952;2023-07-31T06:44:30;9.48;;;8.57;;
50231;SDS011;36118;56.468;84.952;2023-07-31T06:49:33;11.13;;;9.30;;
50231;SDS011;36118;56.468;84.952;2023-07-31T06:54:36;9.82;;;8.52;;
50231;SDS011;36118;56.468;84.952;2023-07-31T06:59:39;9.95;;;8.73;;
50231;SDS011;36118;56.468;84.952;2023-07-31T07:04:42;10.95;;;8.23;;
50231;SDS011;36118;56.468;84.952;2023-07-31T07:09:45;8.77;;;7.97;;
50231;SDS011;36118;56.468;84.952;2023-07-31T07:14:48;8.43;;;7.63;;
50231;SDS011;36118;56.468;84.952;2023-07-31T07:19:51;8.70;;;7.80;;
50231;SDS011;36118;56.468;84.952;2023-07-31T07:24:54;8.90;;;7.63;;
50231;SDS011;36118;56.468;84.952;2023-07-31T07:29:57;9.05;;;7.78;;
50231;SDS011;36118;56.468;84.952;2023-07-31T07:35:01;9.93;;;8.35;;
50231;SDS011;36118;56.468;84.952;2023-07-31T07:40:04;9.82;;;8.82;;
50231;SDS011;36118;56.468;84.952;2023-07-31T07:45:08;12.52;;;9.98;;
50231;SDS011;36118;56.468;84.952;2023-07-31T07:50:11;12.13;;;10.75;;
50231;SDS011;36118;56.468;84.952;2023-07-31T07:55:14;12.68;;;9.95;;
50231;SDS011;36118;56.468;84.952;2023-07-31T08:00:17;12.10;;;9.50;;
50231;SDS011;36118;56.468;84.952;2023-07-31T08:05:20;9.13;;;8.10;;
50231;SDS011;36118;56.468;84.952;2023-07-31T08:10:23;8.05;;;7.25;;
50231;SDS011;36118;56.468;84.952;2023-07-31T08:15:26;8.73;;;6.95;;
50231;SDS011;36118;56.468;84.952;2023-07-31T08:20:29;7.55;;;6.85;;
50231;SDS011;36118;56.468;84.952;2023-07-31T08:25:34;8.50;;;7.40;;
50231;SDS011;36118;56.468;84.952;2023-07-31T08:30:37;7.75;;;6.00;;
50231;SDS011;36118;56.468;84.952;2023-07-31T08:35:40;7.88;;;6.05;;
50231;SDS011;36118;56.468;84.952;2023-07-31T08:40:44;8.98;;;6.80;;
50231;SDS011;36118;56.468;84.952;2023-07-31T08:45:46;8.63;;;6.25;;
50231;SDS011;36118;56.468;84.952;2023-07-31T08:50:51;8.98;;;6.07;;
50231;SDS011;36118;56.468;84.952;2023-07-31T08:55:56;11.20;;;7.13;;
50231;SDS011;36118;56.468;84.952;2023-07-31T09:01:00;10.75;;;5.75;;
50231;SDS011;36118;56.468;84.952;2023-07-31T09:06:05;8.70;;;6.70;;
50231;SDS011;36118;56.468;84.952;2023-07-31T09:11:08;8.10;;;6.28;;
50231;SDS011;36118;56.468;84.952;2023-07-31T09:16:11;11.52;;;6.82;;
50231;SDS011;36118;56.468;84.952;2023-07-31T09:21:14;6.90;;;6.20;;
50231;SDS011;36118;56.468;84.952;2023-07-31T09:26:30;14.43;;;7.15;;
50231;SDS011;36118;56.468;84.952;2023-07-31T09:31:38;10.32;;;6.85;;
50231;SDS011;36118;56.468;84.952;2023-07-31T09:36:45;7.70;;;6.90;;
50231;SDS011;36118;56.468;84.952;2023-07-31T09:41:54;8.35;;;6.72;;
50231;SDS011;36118;56.468;84.952;2023-07-31T09:46:57;8.57;;;7.10;;
50231;SDS011;36118;56.468;84.952;2023-07-31T09:52:00;10.27;;;7.03;;
50231;SDS011;36118;56.468;84.952;2023-07-31T09:57:03;10.93;;;7.55;;
50231;SDS011;36118;56.468;84.952;2023-07-31T10:02:07;8.32;;;7.18;;
50231;SDS011;36118;56.468;84.952;2023-07-31T10:12:15;6.35;;;5.75;;
50231;SDS011;36118;56.468;84.952;2023-07-31T10:17:19;7.93;;;6.60;;
50231;SDS011;36118;56.468;84.952;2023-07-31T10:22:24;9.50;;;6.32;;
50231;SDS011;36118;56.468;84.952;2023-07-31T10:27:28;9.02;;;6.85;;
50231;SDS011;36118;56.468;84.952;2023-07-31T10:32:30;9.43;;;7.07;;
50231;SDS011;36118;56.468;84.952;2023-07-31T10:37:41;10.57;;;7.50;;
50231;SDS011;36118;56.468;84.952;2023-07-31T10:42:47;9.02;;;7.20;;
50231;SDS011;36118;56.468;84.952;2023-07-31T10:47:57;9.60;;;7.30;;
50231;SDS011;36118;56.468;84.952;2023-07-31T10:53:04;10.18;;;7.53;;
50231;SDS011;36118;56.468;84.952;2023-07-31T10:58:13;12.32;;;7.30;;
50231;SDS011;36118;56.468;84.952;2023-07-31T11:03:17;9.68;;;7.07;;
50231;SDS011;36118;56.468;84.952;2023-07-31T11:08:24;8.55;;;7.07;;
50231;SDS011;36118;56.468;84.952;2023-07-31T11:13:31;8.80;;;6.85;;
50231;SDS011;36118;56.468;84.952;2023-07-31T11:18:43;13.52;;;7.15;;
50231;SDS011;36118;56.468;84.952;2023-07-31T11:23:47;8.23;;;7.03;;
50231;SDS011;36118;56.468;84.952;2023-07-31T11:28:50;8.05;;;7.25;;
50231;SDS011;36118;56.468;84.952;2023-07-31T11:34:05;9.63;;;7.60;;
50231;SDS011;36118;56.468;84.952;2023-07-31T11:39:09;10.23;;;7.57;;
50231;SDS011;36118;56.468;84.952;2023-07-31T11:44:12;13.37;;;7.17;;
50231;SDS011;36118;56.468;84.952;2023-07-31T11:49:29;12.13;;;7.38;;
50231;SDS011;36118;56.468;84.952;2023-07-31T11:54:35;9.05;;;7.10;;
50231;SDS011;36118;56.468;84.952;2023-07-31T11:59:39;9.15;;;6.63;;
50231;SDS011;36118;56.468;84.952;2023-07-31T12:04:42;11.63;;;7.70;;
50231;SDS011;36118;56.468;84.952;2023-07-31T12:09:55;11.90;;;7.70;;
50231;SDS011;36118;56.468;84.952;2023-07-31T12:14:59;9.02;;;7.80;;
50231;SDS011;36118;56.468;84.952;2023-07-31T12:20:04;9.98;;;7.65;;
50231;SDS011;36118;56.468;84.952;2023-07-31T12:25:14;10.13;;;7.85;;
50231;SDS011;36118;56.468;84.952;2023-07-31T12:30:31;8.63;;;6.38;;
50231;SDS011;36118;56.468;84.952;2023-07-31T12:35:37;7.13;;;6.32;;
50231;SDS011;36118;56.468;84.952;2023-07-31T12:40:41;7.50;;;6.47;;
50231;SDS011;36118;56.468;84.952;2023-07-31T12:45:44;8.00;;;6.55;;
50231;SDS011;36118;56.468;84.952;2023-07-31T12:50:47;9.70;;;5.95;;
50231;SDS011;36118;56.468;84.952;2023-07-31T12:55:50;8.23;;;6.00;;
50231;SDS011;36118;56.468;84.952;2023-07-31T13:00:53;11.75;;;6.97;;
50231;SDS011;36118;56.468;84.952;2023-07-31T13:05:56;9.57;;;6.90;;
50231;SDS011;36118;56.468;84.952;2023-07-31T13:11:00;9.13;;;7.20;;
50231;SDS011;36118;56.468;84.952;2023-07-31T13:16:03;9.25;;;7.20;;
50231;SDS011;36118;56.468;84.952;2023-07-31T13:21:07;12.15;;;8.18;;
50231;SDS011;36118;56.468;84.952;2023-07-31T13:26:10;13.88;;;8.70;;
50231;SDS011;36118;56.468;84.952;2023-07-31T13:31:13;13.75;;;9.63;;
50231;SDS011;36118;56.468;84.952;2023-07-31T13:36:16;10.85;;;8.40;;
50231;SDS011;36118;56.468;84.952;2023-07-31T13:41:19;10.20;;;8.07;;
50231;SDS011;36118;56.468;84.952;2023-07-31T13:46:22;13.93;;;9.15;;
50231;SDS011;36118;56.468;84.952;2023-07-31T13:51:25;17.45;;;9.18;;
50231;SDS011;36118;56.468;84.952;2023-07-31T13:56:29;24.57;;;9.73;;
50231;SDS011;36118;56.468;84.952;2023-07-31T14:01:32;12.45;;;9.88;;
50231;SDS011;36118;56.468;84.952;2023-07-31T14:06:35;19.83;;;10.75;;
50231;SDS011;36118;56.468;84.952;2023-07-31T14:11:40;17.05;;;11.27;;
50231;SDS011;36118;56.468;84.952;2023-07-31T14:16:45;15.52;;;9.38;;
50231;SDS011;36118;56.468;84.952;2023-07-31T14:21:48;11.25;;;9.27;;
50231;SDS011;36118;56.468;84.952;2023-07-31T14:27:10;14.27;;;9.30;;
50231;SDS011;36118;56.468;84.952;2023-07-31T14:32:13;12.93;;;9.15;;
50231;SDS011;36118;56.468;84.952;2023-07-31T14:37:16;18.85;;;9.98;;
50231;SDS011;36118;56.468;84.952;2023-07-31T14:42:19;11.65;;;9.63;;
50231;SDS011;36118;56.468;84.952;2023-07-31T14:47:22;11.70;;;9.57;;
50231;SDS011;36118;56.468;84.952;2023-07-31T14:52:26;14.60;;;9.88;;
50231;SDS011;36118;56.468;84.952;2023-07-31T14:57:29;13.60;;;9.80;;
50231;SDS011;36118;56.468;84.952;2023-07-31T15:02:33;16.67;;;9.98;;
50231;SDS011;36118;56.468;84.952;2023-07-31T15:07:37;14.27;;;10.57;;
50231;SDS011;36118;56.468;84.952;2023-07-31T15:12:40;14.95;;;10.50;;
50231;SDS011;36118;56.468;84.952;2023-07-31T15:17:44;14.40;;;10.82;;
50231;SDS011;36118;56.468;84.952;2023-07-31T15:22:47;12.13;;;10.82;;
50231;SDS011;36118;56.468;84.952;2023-07-31T15:27:51;15.52;;;10.95;;
50231;SDS011;36118;56.468;84.952;2023-07-31T15:32:54;14.75;;;11.15;;
50231;SDS011;36118;56.468;84.952;2023-07-31T15:37:57;12.32;;;10.63;;
50231;SDS011;36118;56.468;84.952;2023-07-31T15:43:00;12.50;;;10.25;;
50231;SDS011;36118;56.468;84.952;2023-07-31T15:48:04;12.05;;;10.85;;
50231;SDS011;36118;56.468;84.952;2023-07-31T15:53:07;14.80;;;10.98;;
50231;SDS011;36118;56.468;84.952;2023-07-31T15:58:11;12.75;;;11.45;;
50231;SDS011;36118;56.468;84.952;2023-07-31T16:03:13;12.43;;;11.23;;
50231;SDS011;36118;56.468;84.952;2023-07-31T16:08:17;12.60;;;10.77;;
50231;SDS011;36118;56.468;84.952;2023-07-31T16:13:21;11.98;;;10.65;;
50231;SDS011;36118;56.468;84.952;2023-07-31T16:18:24;12.60;;;10.65;;
50231;SDS011;36118;56.468;84.952;2023-07-31T16:23:27;11.85;;;10.10;;
50231;SDS011;36118;56.468;84.952;2023-07-31T16:28:30;11.27;;;10.13;;
50231;SDS011;36118;56.468;84.952;2023-07-31T16:33:33;11.57;;;10.38;;
50231;SDS011;36118;56.468;84.952;2023-07-31T16:38:36;11.52;;;10.32;;
50231;SDS011;36118;56.468;84.952;2023-07-31T16:43:38;11.90;;;9.55;;
50231;SDS011;36118;56.468;84.952;2023-07-31T16:48:41;12.80;;;10.25;;
50231;SDS011;36118;56.468;84.952;2023-07-31T16:53:44;11.77;;;10.57;;
50231;SDS011;36118;56.468;84.952;2023-07-31T16:58:47;11.27;;;10.07;;
50231;SDS011;36118;56.468;84.952;2023-07-31T17:03:50;11.95;;;10.18;;
50231;SDS011;36118;56.468;84.952;2023-07-31T17:08:53;11.60;;;10.40;;
50231;SDS011;36118;56.468;84.952;2023-07-31T17:13:57;11.20;;;10.10;;
50231;SDS011;36118;56.468;84.952;2023-07-31T17:19:03;11.75;;;10.55;;
50231;SDS011;36118;56.468;84.952;2023-07-31T17:24:07;13.80;;;11.00;;
50231;SDS011;36118;56.468;84.952;2023-07-31T17:29:11;12.95;;;11.30;;
50231;SDS011;36118;56.468;84.952;2023-07-31T17:34:16;13.73;;;11.32;;
50231;SDS011;36118;56.468;84.952;2023-07-31T17:39:19;12.00;;;10.80;;
50231;SDS011;36118;56.468;84.952;2023-07-31T17:44:22;13.10;;;11.30;;
50231;SDS011;36118;56.468;84.952;2023-07-31T17:49:26;13.75;;;12.07;;
50231;SDS011;36118;56.468;84.952;2023-07-31T17:54:29;13.50;;;11.95;;
50231;SDS011;36118;56.468;84.952;2023-07-31T17:59:32;13.63;;;12.23;;
50231;SDS011;36118;56.468;84.952;2023-07-31T18:04:35;14.05;;;12.57;;
50231;SDS011;36118;56.468;84.952;2023-07-31T18:09:38;14.60;;;12.23;;
50231;SDS011;36118;56.468;84.952;2023-07-31T18:14:41;17.15;;;12.40;;
50231;SDS011;36118;56.468;84.952;2023-07-31T18:19:45;14.23;;;12.82;;
50231;SDS011;36118;56.468;84.952;2023-07-31T18:24:48;16.42;;;11.68;;
50231;SDS011;36118;56.468;84.952;2023-07-31T18:29:50;13.10;;;11.73;;
50231;SDS011;36118;56.468;84.952;2023-07-31T18:34:54;13.20;;;11.90;;
50231;SDS011;36118;56.468;84.952;2023-07-31T18:39:57;13.38;;;12.07;;
50231;SDS011;36118;56.468;84.952;2023-07-31T18:45:00;14.88;;;12.35;;
50231;SDS011;36118;56.468;84.952;2023-07-31T18:50:04;14.70;;;13.20;;
50231;SDS011;36118;56.468;84.952;2023-07-31T18:55:08;13.77;;;12.18;;
50231;SDS011;36118;56.468;84.952;2023-07-31T19:00:11;14.25;;;12.85;;
50231;SDS011;36118;56.468;84.952;2023-07-31T19:05:15;15.65;;;12.45;;
50231;SDS011;36118;56.468;84.952;2023-07-31T19:10:18;17.77;;;12.57;;
50231;SDS011;36118;56.468;84.952;2023-07-31T19:15:21;14.40;;;12.88;;
50231;SDS011;36118;56.468;84.952;2023-07-31T19:20:24;14.55;;;12.95;;
50231;SDS011;36118;56.468;84.952;2023-07-31T19:25:27;14.43;;;12.98;;
50231;SDS011;36118;56.468;84.952;2023-07-31T19:30:30;17.35;;;14.25;;
50231;SDS011;36118;56.468;84.952;2023-07-31T19:35:34;16.10;;;14.18;;
50231;SDS011;36118;56.468;84.952;2023-07-31T19:40:37;16.55;;;13.68;;
50231;SDS011;36118;56.468;84.952;2023-07-31T19:45:40;16.45;;;14.55;;
50231;SDS011;36118;56.468;84.952;2023-07-31T19:50:43;15.65;;;14.00;;
50231;SDS011;36118;56.468;84.952;2023-07-31T19:55:47;16.13;;;14.27;;
50231;SDS011;36118;56.468;84.952;2023-07-31T20:00:50;18.45;;;14.55;;
50231;SDS011;36118;56.468;84.952;2023-07-31T20:05:53;18.15;;;15.55;;
50231;SDS011;36118;56.468;84.952;2023-07-31T20:10:56;17.17;;;15.07;;
50231;SDS011;36118;56.468;84.952;2023-07-31T20:16:02;16.42;;;14.80;;
50231;SDS011;36118;56.468;84.952;2023-07-31T20:21:06;17.02;;;15.10;;
50231;SDS011;36118;56.468;84.952;2023-07-31T20:26:09;17.88;;;16.02;;
50231;SDS011;36118;56.468;84.952;2023-07-31T20:31:12;17.67;;;14.98;;
50231;SDS011;36118;56.468;84.952;2023-07-31T20:36:15;18.08;;;16.27;;
50231;SDS011;36118;56.468;84.952;2023-07-31T20:41:18;16.45;;;14.85;;
50231;SDS011;36118;56.468;84.952;2023-07-31T20:46:21;17.65;;;15.23;;
50231;SDS011;36118;56.468;84.952;2023-07-31T20:51:24;19.30;;;14.98;;
50231;SDS011;36118;56.468;84.952;2023-07-31T20:56:27;18.40;;;15.35;;
50231;SDS011;36118;56.468;84.952;2023-07-31T21:01:30;19.73;;;15.88;;
50231;SDS011;36118;56.468;84.952;2023-07-31T21:06:33;17.98;;;16.08;;
50231;SDS011;36118;56.468;84.952;2023-07-31T21:11:37;17.67;;;15.80;;
50231;SDS011;36118;56.468;84.952;2023-07-31T21:16:39;18.35;;;16.27;;
50231;SDS011;36118;56.468;84.952;2023-07-31T21:21:43;18.48;;;15.30;;
50231;SDS011;36118;56.468;84.952;2023-07-31T21:26:46;20.67;;;16.75;;
50231;SDS011;36118;56.468;84.952;2023-07-31T21:31:49;18.63;;;15.85;;
50231;SDS011;36118;56.468;84.952;2023-07-31T21:36:53;18.50;;;16.45;;
50231;SDS011;36118;56.468;84.952;2023-07-31T21:41:56;20.05;;;16.85;;
50231;SDS011;36118;56.468;84.952;2023-07-31T21:46:59;21.88;;;16.63;;
50231;SDS011;36118;56.468;84.952;2023-07-31T21:52:02;18.05;;;16.15;;
50231;SDS011;36118;56.468;84.952;2023-07-31T21:57:06;17.88;;;15.70;;
50231;SDS011;36118;56.468;84.952;2023-07-31T22:02:09;18.58;;;15.95;;
50231;SDS011;36118;56.468;84.952;2023-07-31T22:07:12;17.95;;;16.10;;
50231;SDS011;36118;56.468;84.952;2023-07-31T22:12:16;19.88;;;16.98;;
50231;SDS011;36118;56.468;84.952;2023-07-31T22:17:18;18.70;;;16.63;;
50231;SDS011;36118;56.468;84.952;2023-07-31T22:22:21;19.35;;;16.63;;
50231;SDS011;36118;56.468;84.952;2023-07-31T22:27:24;21.17;;;16.70;;
50231;SDS011;36118;56.468;84.952;2023-07-31T22:32:27;22.23;;;17.10;;
50231;SDS011;36118;56.468;84.952;2023-07-31T22:37:30;20.30;;;18.02;;
50231;SDS011;36118;56.468;84.952;2023-07-31T22:42:34;22.27;;;17.75;;
50231;SDS011;36118;56.468;84.952;2023-07-31T22:47:37;22.08;;;17.55;;
50231;SDS011;36118;56.468;84.952;2023-07-31T22:52:42;22.10;;;18.27;;
50231;SDS011;36118;56.468;84.952;2023-07-31T22:57:45;22.13;;;17.77;;
50231;SDS011;36118;56.468;84.952;2023-07-31T23:02:48;23.08;;;18.25;;
50231;SDS011;36118;56.468;84.952;2023-07-31T23:07:51;22.45;;;17.23;;
50231;SDS011;36118;56.468;84.952;2023-07-31T23:12:54;21.33;;;16.55;;
50231;SDS011;36118;56.468;84.952;2023-07-31T23:17:57;21.38;;;17.25;;
50231;SDS011;36118;56.468;84.952;2023-07-31T23:23:00;23.52;;;18.45;;
50231;SDS011;36118;56.468;84.952;2023-07-31T23:28:03;21.25;;;17.10;;
50231;SDS011;36118;56.468;84.952;2023-07-31T23:33:09;22.35;;;18.15;;
50231;SDS011;36118;56.468;84.952;2023-07-31T23:38:12;19.48;;;17.08;;
50231;SDS011;36118;56.468;84.952;2023-07-31T23:43:16;18.90;;;16.80;;
50231;SDS011;36118;56.468;84.952;2023-07-31T23:48:18;19.98;;;16.27;;
50231;SDS011;36118;56.468;84.952;2023-07-31T23:53:21;18.85;;;16.95;;
50231;SDS011;36118;56.468;84.952;2023-07-31T23:58:25;21.33;;;15.43;;
